sensor_id;sensor_type;location;lat;lon;timestamp;P1;durP1;ratioP1;P2;durP2;ratioP2
29330;SDS011;16331;52.528;13.342;2023-08-06T00:01:45;14.18;;;9.20;;
29330;SDS011;16331;52.528;13.342;2023-08-06T00:04:11;17.23;;;10.95;;
29330;SDS011;16331;52.528;13.342;2023-08-06T00:06:37;20.05;;;11.10;;
29330;SDS011;16331;52.528;13.342;2023-08-06T00:09:03;18.80;;;10.27;;
29330;SDS011;16331;52.528;13.342;2023-08-06T00:11:29;14.88;;;9.43;;
29330;SDS011;16331;52.528;13.342;2023-08-06T00:13:55;15.70;;;9.15;;
29330;SDS011;16331;52.528;13.342;2023-08-06T00:16:21;18.05;;;10.13;;
29330;SDS011;16331;52.528;13.342;2023-08-06T00:18:47;17.52;;;9.13;;
29330;SDS011;16331;52.528;13.342;2023-08-06T00:21:13;18.33;;;9.68;;
29330;SDS011;16331;52.528;13.342;2023-08-06T00:23:40;12.73;;;8.95;;
29330;SDS011;16331;52.528;13.342;2023-08-06T00:26:06;14.13;;;9.68;;
29330;SDS011;16331;52.528;13.342;2023-08-06T00:28:33;18.83;;;9.80;;
29330;SDS011;16331;52.528;13.342;2023-08-06T00:30:59;14.48;;;9.38;;
29330;SDS011;16331;52.528;13.342;2023-08-06T00:33:25;14.27;;;9.35;;
29330;SDS011;16331;52.528;13.342;2023-08-06T00:35:51;12.27;;;8.02;;
29330;SDS011;16331;52.528;13.342;2023-08-06T00:38:20;12.25;;;8.02;;
29330;SDS011;16331;52.528;13.342;2023-08-06T00:40:47;13.38;;;8.43;;
29330;SDS011;16331;52.528;13.342;2023-08-06T00:43:13;16.15;;;8.75;;
29330;SDS011;16331;52.528;13.342;2023-08-06T00:45:39;14.55;;;8.60;;
29330;SDS011;16331;52.528;13.342;2023-08-06T00:48:05;13.25;;;9.15;;
29330;SDS011;16331;52.528;13.342;2023-08-06T00:50:32;12.82;;;7.72;;
29330;SDS011;16331;52.528;13.342;2023-08-06T00:52:58;15.50;;;8.57;;
29330;SDS011;16331;52.528;13.342;2023-08-06T00:55:25;16.92;;;8.65;;
29330;SDS011;16331;52.528;13.342;2023-08-06T00:57:51;11.93;;;7.63;;
29330;SDS011;16331;52.528;13.342;2023-08-06T01:00:21;13.73;;;7.88;;
29330;SDS011;16331;52.528;13.342;2023-08-06T01:02:51;14.38;;;8.63;;
29330;SDS011;16331;52.528;13.342;2023-08-06T01:05:18;14.50;;;8.07;;
29330;SDS011;16331;52.528;13.342;2023-08-06T01:10:38;14.32;;;8.32;;
29330;SDS011;16331;52.528;13.342;2023-08-06T01:13:45;14.93;;;8.60;;
29330;SDS011;16331;52.528;13.342;2023-08-06T01:16:18;12.73;;;7.93;;
29330;SDS011;16331;52.528;13.342;2023-08-06T01:18:46;14.63;;;8.00;;
29330;SDS011;16331;52.528;13.342;2023-08-06T01:21:17;12.32;;;7.47;;
29330;SDS011;16331;52.528;13.342;2023-08-06T01:23:47;14.65;;;7.72;;
29330;SDS011;16331;52.528;13.342;2023-08-06T01:28:59;19.40;;;7.90;;
29330;SDS011;16331;52.528;13.342;2023-08-06T01:31:37;11.90;;;7.88;;
29330;SDS011;16331;52.528;13.342;2023-08-06T01:34:07;11.85;;;8.40;;
29330;SDS011;16331;52.528;13.342;2023-08-06T01:36:58;10.55;;;7.63;;
29330;SDS011;16331;52.528;13.342;2023-08-06T01:39:25;13.02;;;8.57;;
29330;SDS011;16331;52.528;13.342;2023-08-06T01:41:51;14.48;;;8.50;;
29330;SDS011;16331;52.528;13.342;2023-08-06T01:44:21;12.93;;;8.73;;
29330;SDS011;16331;52.528;13.342;2023-08-06T01:46:47;11.02;;;8.25;;
29330;SDS011;16331;52.528;13.342;2023-08-06T01:49:13;12.15;;;8.13;;
29330;SDS011;16331;52.528;13.342;2023-08-06T01:51:39;12.63;;;8.30;;
29330;SDS011;16331;52.528;13.342;2023-08-06T01:54:05;11.95;;;7.43;;
29330;SDS011;16331;52.528;13.342;2023-08-06T01:56:31;14.98;;;9.65;;
29330;SDS011;16331;52.528;13.342;2023-08-06T01:58:57;12.68;;;8.15;;
29330;SDS011;16331;52.528;13.342;2023-08-06T02:01:23;12.07;;;7.75;;
29330;SDS011;16331;52.528;13.342;2023-08-06T02:03:49;10.50;;;7.65;;
29330;SDS011;16331;52.528;13.342;2023-08-06T02:06:16;11.95;;;7.75;;
29330;SDS011;16331;52.528;13.342;2023-08-06T02:08:42;16.05;;;8.70;;
29330;SDS011;16331;52.528;13.342;2023-08-06T02:11:08;11.98;;;7.95;;
29330;SDS011;16331;52.528;13.342;2023-08-06T02:13:35;11.13;;;7.72;;
29330;SDS011;16331;52.528;13.342;2023-08-06T02:16:01;11.20;;;8.20;;
29330;SDS011;16331;52.528;13.342;2023-08-06T02:18:27;13.98;;;7.80;;
29330;SDS011;16331;52.528;13.342;2023-08-06T02:20:58;11.82;;;8.05;;
29330;SDS011;16331;52.528;13.342;2023-08-06T02:23:25;10.85;;;7.05;;
29330;SDS011;16331;52.528;13.342;2023-08-06T02:25:58;14.80;;;8.30;;
29330;SDS011;16331;52.528;13.342;2023-08-06T02:28:29;13.70;;;8.63;;
29330;SDS011;16331;52.528;13.342;2023-08-06T02:30:56;12.55;;;8.45;;
29330;SDS011;16331;52.528;13.342;2023-08-06T02:33:22;13.02;;;8.98;;
29330;SDS011;16331;52.528;13.342;2023-08-06T02:35:48;12.27;;;8.18;;
29330;SDS011;16331;52.528;13.342;2023-08-06T02:38:18;14.85;;;8.13;;
29330;SDS011;16331;52.528;13.342;2023-08-06T02:40:44;13.23;;;9.20;;
29330;SDS011;16331;52.528;13.342;2023-08-06T02:43:11;15.57;;;9.20;;
29330;SDS011;16331;52.528;13.342;2023-08-06T02:45:37;16.83;;;10.57;;
29330;SDS011;16331;52.528;13.342;2023-08-06T02:48:04;14.32;;;8.93;;
29330;SDS011;16331;52.528;13.342;2023-08-06T02:50:30;13.68;;;8.95;;
29330;SDS011;16331;52.528;13.342;2023-08-06T02:53:02;17.97;;;9.40;;
29330;SDS011;16331;52.528;13.342;2023-08-06T02:55:28;17.92;;;10.32;;
29330;SDS011;16331;52.528;13.342;2023-08-06T02:57:54;16.38;;;10.10;;
29330;SDS011;16331;52.528;13.342;2023-08-06T03:00:20;14.40;;;9.35;;
29330;SDS011;16331;52.528;13.342;2023-08-06T03:02:47;15.52;;;9.40;;
29330;SDS011;16331;52.528;13.342;2023-08-06T03:05:13;12.25;;;8.98;;
29330;SDS011;16331;52.528;13.342;2023-08-06T03:07:39;17.17;;;9.95;;
29330;SDS011;16331;52.528;13.342;2023-08-06T03:10:05;14.57;;;9.50;;
29330;SDS011;16331;52.528;13.342;2023-08-06T03:12:32;16.48;;;8.80;;
29330;SDS011;16331;52.528;13.342;2023-08-06T03:14:58;14.30;;;9.40;;
29330;SDS011;16331;52.528;13.342;2023-08-06T03:17:24;14.32;;;8.45;;
29330;SDS011;16331;52.528;13.342;2023-08-06T03:19:50;15.35;;;9.15;;
29330;SDS011;16331;52.528;13.342;2023-08-06T03:22:16;14.25;;;9.27;;
29330;SDS011;16331;52.528;13.342;2023-08-06T03:24:42;14.68;;;9.23;;
29330;SDS011;16331;52.528;13.342;2023-08-06T03:27:08;15.18;;;9.57;;
29330;SDS011;16331;52.528;13.342;2023-08-06T03:29:34;13.95;;;9.30;;
29330;SDS011;16331;52.528;13.342;2023-08-06T03:32:00;15.40;;;9.38;;
29330;SDS011;16331;52.528;13.342;2023-08-06T03:34:26;16.83;;;9.90;;
29330;SDS011;16331;52.528;13.342;2023-08-06T03:36:52;14.48;;;9.57;;
29330;SDS011;16331;52.528;13.342;2023-08-06T03:39:18;16.52;;;9.32;;
29330;SDS011;16331;52.528;13.342;2023-08-06T03:41:45;16.80;;;10.07;;
29330;SDS011;16331;52.528;13.342;2023-08-06T03:44:11;19.85;;;10.55;;
29330;SDS011;16331;52.528;13.342;2023-08-06T03:46:37;14.13;;;9.48;;
29330;SDS011;16331;52.528;13.342;2023-08-06T03:49:06;15.48;;;9.38;;
29330;SDS011;16331;52.528;13.342;2023-08-06T03:51:32;15.57;;;10.27;;
29330;SDS011;16331;52.528;13.342;2023-08-06T03:53:58;14.18;;;9.52;;
29330;SDS011;16331;52.528;13.342;2023-08-06T03:56:24;18.08;;;11.27;;
29330;SDS011;16331;52.528;13.342;2023-08-06T03:58:50;16.80;;;10.65;;
29330;SDS011;16331;52.528;13.342;2023-08-06T04:01:16;17.13;;;10.88;;
29330;SDS011;16331;52.528;13.342;2023-08-06T04:03:42;19.48;;;11.38;;
29330;SDS011;16331;52.528;13.342;2023-08-06T04:06:08;18.10;;;10.95;;
29330;SDS011;16331;52.528;13.342;2023-08-06T04:08:34;15.13;;;9.73;;
29330;SDS011;16331;52.528;13.342;2023-08-06T04:11:00;17.90;;;9.68;;
29330;SDS011;16331;52.528;13.342;2023-08-06T04:13:28;19.00;;;10.82;;
29330;SDS011;16331;52.528;13.342;2023-08-06T04:16:00;17.60;;;10.65;;
29330;SDS011;16331;52.528;13.342;2023-08-06T04:18:27;20.08;;;9.98;;
29330;SDS011;16331;52.528;13.342;2023-08-06T04:20:53;19.17;;;10.50;;
29330;SDS011;16331;52.528;13.342;2023-08-06T04:23:20;18.75;;;10.75;;
29330;SDS011;16331;52.528;13.342;2023-08-06T04:25:46;18.10;;;10.43;;
29330;SDS011;16331;52.528;13.342;2023-08-06T04:28:12;15.98;;;9.90;;
29330;SDS011;16331;52.528;13.342;2023-08-06T04:30:38;16.85;;;9.27;;
29330;SDS011;16331;52.528;13.342;2023-08-06T04:33:04;13.65;;;8.75;;
29330;SDS011;16331;52.528;13.342;2023-08-06T04:35:30;13.23;;;8.27;;
29330;SDS011;16331;52.528;13.342;2023-08-06T04:37:56;10.10;;;7.18;;
29330;SDS011;16331;52.528;13.342;2023-08-06T04:40:22;13.38;;;9.07;;
29330;SDS011;16331;52.528;13.342;2023-08-06T04:42:49;14.23;;;8.27;;
29330;SDS011;16331;52.528;13.342;2023-08-06T04:45:15;14.02;;;8.52;;
29330;SDS011;16331;52.528;13.342;2023-08-06T04:47:41;14.43;;;8.48;;
29330;SDS011;16331;52.528;13.342;2023-08-06T04:50:07;13.63;;;7.82;;
29330;SDS011;16331;52.528;13.342;2023-08-06T04:52:33;13.18;;;8.57;;
29330;SDS011;16331;52.528;13.342;2023-08-06T04:54:59;13.95;;;7.80;;
29330;SDS011;16331;52.528;13.342;2023-08-06T04:57:26;15.13;;;8.05;;
29330;SDS011;16331;52.528;13.342;2023-08-06T04:59:52;16.35;;;9.25;;
29330;SDS011;16331;52.528;13.342;2023-08-06T05:02:18;20.65;;;9.65;;
29330;SDS011;16331;52.528;13.342;2023-08-06T05:04:44;13.80;;;8.38;;
29330;SDS011;16331;52.528;13.342;2023-08-06T05:07:10;11.93;;;8.80;;
29330;SDS011;16331;52.528;13.342;2023-08-06T05:09:36;10.50;;;7.30;;
29330;SDS011;16331;52.528;13.342;2023-08-06T05:12:03;14.93;;;8.82;;
29330;SDS011;16331;52.528;13.342;2023-08-06T05:14:30;13.82;;;7.82;;
29330;SDS011;16331;52.528;13.342;2023-08-06T05:16:56;11.07;;;7.28;;
29330;SDS011;16331;52.528;13.342;2023-08-06T05:19:22;10.90;;;7.60;;
29330;SDS011;16331;52.528;13.342;2023-08-06T05:21:48;15.50;;;8.68;;
29330;SDS011;16331;52.528;13.342;2023-08-06T05:24:14;11.60;;;8.10;;
29330;SDS011;16331;52.528;13.342;2023-08-06T05:26:40;14.82;;;8.15;;
29330;SDS011;16331;52.528;13.342;2023-08-06T05:29:11;16.20;;;7.50;;
29330;SDS011;16331;52.528;13.342;2023-08-06T05:31:37;15.35;;;7.95;;
29330;SDS011;16331;52.528;13.342;2023-08-06T05:34:03;15.00;;;8.38;;
29330;SDS011;16331;52.528;13.342;2023-08-06T05:36:29;12.55;;;7.15;;
29330;SDS011;16331;52.528;13.342;2023-08-06T05:38:55;11.75;;;7.50;;
29330;SDS011;16331;52.528;13.342;2023-08-06T05:41:21;10.70;;;7.30;;
29330;SDS011;16331;52.528;13.342;2023-08-06T05:43:47;10.10;;;7.07;;
29330;SDS011;16331;52.528;13.342;2023-08-06T05:46:15;11.10;;;7.03;;
29330;SDS011;16331;52.528;13.342;2023-08-06T05:48:41;11.45;;;7.20;;
29330;SDS011;16331;52.528;13.342;2023-08-06T05:51:07;10.95;;;6.60;;
29330;SDS011;16331;52.528;13.342;2023-08-06T05:53:34;9.35;;;7.00;;
29330;SDS011;16331;52.528;13.342;2023-08-06T05:56:00;11.13;;;6.90;;
29330;SDS011;16331;52.528;13.342;2023-08-06T05:58:26;10.20;;;6.15;;
29330;SDS011;16331;52.528;13.342;2023-08-06T06:00:54;9.68;;;5.75;;
29330;SDS011;16331;52.528;13.342;2023-08-06T06:03:20;9.60;;;6.28;;
29330;SDS011;16331;52.528;13.342;2023-08-06T06:05:46;11.15;;;6.47;;
29330;SDS011;16331;52.528;13.342;2023-08-06T06:08:12;11.10;;;6.45;;
29330;SDS011;16331;52.528;13.342;2023-08-06T06:10:38;9.60;;;6.68;;
29330;SDS011;16331;52.528;13.342;2023-08-06T06:13:04;12.18;;;5.90;;
29330;SDS011;16331;52.528;13.342;2023-08-06T06:15:30;9.93;;;6.15;;
29330;SDS011;16331;52.528;13.342;2023-08-06T06:17:56;11.15;;;7.00;;
29330;SDS011;16331;52.528;13.342;2023-08-06T06:20:22;10.27;;;7.32;;
29330;SDS011;16331;52.528;13.342;2023-08-06T06:22:49;9.60;;;5.00;;
29330;SDS011;16331;52.528;13.342;2023-08-06T06:25:15;9.90;;;6.38;;
29330;SDS011;16331;52.528;13.342;2023-08-06T06:27:41;9.85;;;6.18;;
29330;SDS011;16331;52.528;13.342;2023-08-06T06:30:07;10.02;;;5.68;;
29330;SDS011;16331;52.528;13.342;2023-08-06T06:32:33;7.93;;;5.55;;
29330;SDS011;16331;52.528;13.342;2023-08-06T06:35:00;10.25;;;6.63;;
29330;SDS011;16331;52.528;13.342;2023-08-06T06:37:26;11.77;;;6.40;;
29330;SDS011;16331;52.528;13.342;2023-08-06T06:39:52;9.25;;;6.47;;
29330;SDS011;16331;52.528;13.342;2023-08-06T06:42:18;9.50;;;6.63;;
29330;SDS011;16331;52.528;13.342;2023-08-06T06:44:44;10.32;;;6.28;;
29330;SDS011;16331;52.528;13.342;2023-08-06T06:47:10;8.88;;;6.30;;
29330;SDS011;16331;52.528;13.342;2023-08-06T06:49:36;11.15;;;6.28;;
29330;SDS011;16331;52.528;13.342;2023-08-06T06:52:02;9.73;;;6.28;;
29330;SDS011;16331;52.528;13.342;2023-08-06T06:54:29;8.48;;;5.90;;
29330;SDS011;16331;52.528;13.342;2023-08-06T06:56:55;9.98;;;6.38;;
29330;SDS011;16331;52.528;13.342;2023-08-06T06:59:21;8.23;;;6.40;;
29330;SDS011;16331;52.528;13.342;2023-08-06T07:01:47;14.57;;;6.93;;
29330;SDS011;16331;52.528;13.342;2023-08-06T07:04:14;11.25;;;6.60;;
29330;SDS011;16331;52.528;13.342;2023-08-06T07:06:40;11.18;;;6.50;;
29330;SDS011;16331;52.528;13.342;2023-08-06T07:09:06;9.27;;;6.68;;
29330;SDS011;16331;52.528;13.342;2023-08-06T07:11:33;12.05;;;6.22;;
29330;SDS011;16331;52.528;13.342;2023-08-06T07:13:59;11.32;;;7.00;;
29330;SDS011;16331;52.528;13.342;2023-08-06T07:16:25;10.10;;;5.93;;
29330;SDS011;16331;52.528;13.342;2023-08-06T07:18:52;10.13;;;5.72;;
29330;SDS011;16331;52.528;13.342;2023-08-06T07:21:19;8.15;;;6.00;;
29330;SDS011;16331;52.528;13.342;2023-08-06T07:23:45;8.32;;;5.55;;
29330;SDS011;16331;52.528;13.342;2023-08-06T07:26:14;10.65;;;5.60;;
29330;SDS011;16331;52.528;13.342;2023-08-06T07:28:41;9.45;;;5.53;;
29330;SDS011;16331;52.528;13.342;2023-08-06T07:31:07;9.55;;;5.03;;
29330;SDS011;16331;52.528;13.342;2023-08-06T07:33:34;8.07;;;5.88;;
29330;SDS011;16331;52.528;13.342;2023-08-06T07:36:06;8.90;;;5.88;;
29330;SDS011;16331;52.528;13.342;2023-08-06T07:38:36;9.55;;;5.75;;
29330;SDS011;16331;52.528;13.342;2023-08-06T07:41:03;12.65;;;6.82;;
29330;SDS011;16331;52.528;13.342;2023-08-06T07:43:29;8.95;;;5.88;;
29330;SDS011;16331;52.528;13.342;2023-08-06T07:45:59;7.82;;;5.75;;
29330;SDS011;16331;52.528;13.342;2023-08-06T07:48:26;10.80;;;6.43;;
29330;SDS011;16331;52.528;13.342;2023-08-06T07:50:53;9.25;;;6.57;;
29330;SDS011;16331;52.528;13.342;2023-08-06T07:53:21;18.13;;;6.75;;
29330;SDS011;16331;52.528;13.342;2023-08-06T07:55:51;12.77;;;7.28;;
29330;SDS011;16331;52.528;13.342;2023-08-06T08:00:49;13.65;;;9.55;;
29330;SDS011;16331;52.528;13.342;2023-08-06T08:03:16;14.20;;;9.40;;
29330;SDS011;16331;52.528;13.342;2023-08-06T08:05:42;11.48;;;7.38;;
29330;SDS011;16331;52.528;13.342;2023-08-06T08:08:09;14.27;;;9.60;;
29330;SDS011;16331;52.528;13.342;2023-08-06T08:10:35;15.75;;;9.32;;
29330;SDS011;16331;52.528;13.342;2023-08-06T08:13:03;14.90;;;9.68;;
29330;SDS011;16331;52.528;13.342;2023-08-06T08:15:30;13.35;;;9.10;;
29330;SDS011;16331;52.528;13.342;2023-08-06T08:17:57;14.23;;;9.70;;
29330;SDS011;16331;52.528;13.342;2023-08-06T08:20:24;14.10;;;9.05;;
29330;SDS011;16331;52.528;13.342;2023-08-06T08:22:56;13.80;;;9.13;;
29330;SDS011;16331;52.528;13.342;2023-08-06T08:25:23;12.52;;;8.55;;
29330;SDS011;16331;52.528;13.342;2023-08-06T08:27:52;13.40;;;9.75;;
29330;SDS011;16331;52.528;13.342;2023-08-06T08:30:22;14.10;;;10.20;;
29330;SDS011;16331;52.528;13.342;2023-08-06T08:32:49;12.88;;;8.60;;
29330;SDS011;16331;52.528;13.342;2023-08-06T08:35:16;15.75;;;9.98;;
29330;SDS011;16331;52.528;13.342;2023-08-06T08:37:43;13.35;;;9.70;;
29330;SDS011;16331;52.528;13.342;2023-08-06T08:40:09;16.45;;;9.35;;
29330;SDS011;16331;52.528;13.342;2023-08-06T08:42:36;13.23;;;9.23;;
29330;SDS011;16331;52.528;13.342;2023-08-06T08:45:04;16.98;;;10.57;;
29330;SDS011;16331;52.528;13.342;2023-08-06T08:47:36;12.77;;;9.13;;
29330;SDS011;16331;52.528;13.342;2023-08-06T08:50:03;13.65;;;9.63;;
29330;SDS011;16331;52.528;13.342;2023-08-06T08:52:32;16.83;;;9.90;;
29330;SDS011;16331;52.528;13.342;2023-08-06T08:55:01;12.23;;;9.40;;
29330;SDS011;16331;52.528;13.342;2023-08-06T08:57:28;15.80;;;9.75;;
29330;SDS011;16331;52.528;13.342;2023-08-06T08:59:57;16.45;;;10.95;;
29330;SDS011;16331;52.528;13.342;2023-08-06T09:02:23;17.38;;;10.77;;
29330;SDS011;16331;52.528;13.342;2023-08-06T09:04:55;19.50;;;9.90;;
29330;SDS011;16331;52.528;13.342;2023-08-06T09:07:29;16.70;;;9.82;;
29330;SDS011;16331;52.528;13.342;2023-08-06T09:10:02;17.90;;;10.93;;
29330;SDS011;16331;52.528;13.342;2023-08-06T09:12:29;14.95;;;9.93;;
29330;SDS011;16331;52.528;13.342;2023-08-06T09:14:58;18.83;;;10.95;;
29330;SDS011;16331;52.528;13.342;2023-08-06T09:17:27;16.75;;;10.63;;
29330;SDS011;16331;52.528;13.342;2023-08-06T09:19:55;18.58;;;10.00;;
29330;SDS011;16331;52.528;13.342;2023-08-06T09:22:21;17.48;;;11.55;;
29330;SDS011;16331;52.528;13.342;2023-08-06T09:24:48;17.75;;;11.15;;
29330;SDS011;16331;52.528;13.342;2023-08-06T09:27:14;18.05;;;11.00;;
29330;SDS011;16331;52.528;13.342;2023-08-06T09:29:42;17.25;;;9.98;;
29330;SDS011;16331;52.528;13.342;2023-08-06T09:32:09;15.05;;;10.35;;
29330;SDS011;16331;52.528;13.342;2023-08-06T09:34:38;17.35;;;10.23;;
29330;SDS011;16331;52.528;13.342;2023-08-06T09:37:05;14.85;;;9.98;;
29330;SDS011;16331;52.528;13.342;2023-08-06T09:39:33;16.70;;;10.38;;
29330;SDS011;16331;52.528;13.342;2023-08-06T09:42:00;16.63;;;10.43;;
29330;SDS011;16331;52.528;13.342;2023-08-06T09:44:27;17.13;;;11.82;;
29330;SDS011;16331;52.528;13.342;2023-08-06T09:46:57;20.20;;;10.82;;
29330;SDS011;16331;52.528;13.342;2023-08-06T09:49:27;18.88;;;11.65;;
29330;SDS011;16331;52.528;13.342;2023-08-06T09:51:56;20.38;;;11.07;;
29330;SDS011;16331;52.528;13.342;2023-08-06T09:54:24;20.45;;;11.25;;
29330;SDS011;16331;52.528;13.342;2023-08-06T09:56:55;16.17;;;10.23;;
29330;SDS011;16331;52.528;13.342;2023-08-06T09:59:21;16.15;;;10.52;;
29330;SDS011;16331;52.528;13.342;2023-08-06T10:01:49;13.88;;;10.05;;
29330;SDS011;16331;52.528;13.342;2023-08-06T10:04:15;13.93;;;9.40;;
29330;SDS011;16331;52.528;13.342;2023-08-06T10:06:42;15.70;;;11.40;;
29330;SDS011;16331;52.528;13.342;2023-08-06T10:09:11;16.73;;;10.98;;
29330;SDS011;16331;52.528;13.342;2023-08-06T10:11:38;18.40;;;12.57;;
29330;SDS011;16331;52.528;13.342;2023-08-06T10:14:06;18.83;;;12.25;;
29330;SDS011;16331;52.528;13.342;2023-08-06T10:16:41;23.17;;;13.40;;
29330;SDS011;16331;52.528;13.342;2023-08-06T10:19:11;20.60;;;12.88;;
29330;SDS011;16331;52.528;13.342;2023-08-06T10:21:39;26.63;;;14.30;;
29330;SDS011;16331;52.528;13.342;2023-08-06T10:24:06;21.48;;;14.07;;
29330;SDS011;16331;52.528;13.342;2023-08-06T10:26:36;20.48;;;13.02;;
29330;SDS011;16331;52.528;13.342;2023-08-06T10:29:34;21.70;;;14.18;;
29330;SDS011;16331;52.528;13.342;2023-08-06T10:32:01;21.73;;;13.73;;
29330;SDS011;16331;52.528;13.342;2023-08-06T10:37:23;23.52;;;13.27;;
29330;SDS011;16331;52.528;13.342;2023-08-06T10:40:01;24.20;;;14.02;;
29330;SDS011;16331;52.528;13.342;2023-08-06T10:42:28;22.95;;;13.90;;
29330;SDS011;16331;52.528;13.342;2023-08-06T10:45:11;22.67;;;12.88;;
29330;SDS011;16331;52.528;13.342;2023-08-06T10:47:41;22.30;;;13.35;;
29330;SDS011;16331;52.528;13.342;2023-08-06T10:50:10;19.60;;;12.27;;
29330;SDS011;16331;52.528;13.342;2023-08-06T10:52:41;20.65;;;13.10;;
29330;SDS011;16331;52.528;13.342;2023-08-06T10:55:12;17.08;;;10.93;;
29330;SDS011;16331;52.528;13.342;2023-08-06T10:57:39;18.70;;;10.70;;
29330;SDS011;16331;52.528;13.342;2023-08-06T11:00:06;15.90;;;10.57;;
29330;SDS011;16331;52.528;13.342;2023-08-06T11:02:34;19.45;;;12.05;;
29330;SDS011;16331;52.528;13.342;2023-08-06T11:05:07;18.95;;;11.65;;
29330;SDS011;16331;52.528;13.342;2023-08-06T11:07:36;21.17;;;12.48;;
29330;SDS011;16331;52.528;13.342;2023-08-06T11:10:07;21.02;;;13.45;;
29330;SDS011;16331;52.528;13.342;2023-08-06T11:12:34;19.15;;;12.32;;
29330;SDS011;16331;52.528;13.342;2023-08-06T11:15:02;20.48;;;12.75;;
29330;SDS011;16331;52.528;13.342;2023-08-06T11:17:29;18.95;;;12.45;;
29330;SDS011;16331;52.528;13.342;2023-08-06T11:20:05;18.55;;;12.35;;
29330;SDS011;16331;52.528;13.342;2023-08-06T11:22:33;13.20;;;8.43;;
29330;SDS011;16331;52.528;13.342;2023-08-06T11:25:02;11.70;;;7.07;;
29330;SDS011;16331;52.528;13.342;2023-08-06T11:27:31;14.30;;;7.28;;
29330;SDS011;16331;52.528;13.342;2023-08-06T11:29:57;7.60;;;5.93;;
29330;SDS011;16331;52.528;13.342;2023-08-06T11:32:23;9.85;;;5.90;;
29330;SDS011;16331;52.528;13.342;2023-08-06T11:34:50;8.77;;;5.10;;
29330;SDS011;16331;52.528;13.342;2023-08-06T11:37:20;7.97;;;5.13;;
29330;SDS011;16331;52.528;13.342;2023-08-06T11:39:50;9.80;;;5.57;;
29330;SDS011;16331;52.528;13.342;2023-08-06T11:42:17;9.55;;;5.68;;
29330;SDS011;16331;52.528;13.342;2023-08-06T11:44:44;7.20;;;5.35;;
29330;SDS011;16331;52.528;13.342;2023-08-06T11:47:23;9.68;;;6.20;;
29330;SDS011;16331;52.528;13.342;2023-08-06T11:49:52;8.50;;;6.10;;
29330;SDS011;16331;52.528;13.342;2023-08-06T11:52:24;10.35;;;6.80;;
29330;SDS011;16331;52.528;13.342;2023-08-06T11:55:06;11.35;;;7.53;;
29330;SDS011;16331;52.528;13.342;2023-08-06T11:57:37;14.52;;;8.65;;
29330;SDS011;16331;52.528;13.342;2023-08-06T12:00:10;15.30;;;8.55;;
29330;SDS011;16331;52.528;13.342;2023-08-06T12:03:06;18.15;;;10.60;;
29330;SDS011;16331;52.528;13.342;2023-08-06T12:05:53;15.30;;;9.70;;
29330;SDS011;16331;52.528;13.342;2023-08-06T12:08:37;17.88;;;10.48;;
29330;SDS011;16331;52.528;13.342;2023-08-06T12:11:09;15.82;;;9.48;;
29330;SDS011;16331;52.528;13.342;2023-08-06T12:13:35;15.15;;;10.13;;
29330;SDS011;16331;52.528;13.342;2023-08-06T12:16:01;16.75;;;10.75;;
29330;SDS011;16331;52.528;13.342;2023-08-06T12:18:27;15.93;;;10.93;;
29330;SDS011;16331;52.528;13.342;2023-08-06T12:20:58;21.90;;;12.30;;
29330;SDS011;16331;52.528;13.342;2023-08-06T12:23:27;20.27;;;11.35;;
29330;SDS011;16331;52.528;13.342;2023-08-06T12:25:53;19.38;;;12.50;;
29330;SDS011;16331;52.528;13.342;2023-08-06T12:28:21;19.40;;;11.65;;
29330;SDS011;16331;52.528;13.342;2023-08-06T12:30:48;19.23;;;11.85;;
29330;SDS011;16331;52.528;13.342;2023-08-06T12:33:20;18.17;;;11.48;;
29330;SDS011;16331;52.528;13.342;2023-08-06T12:35:48;17.02;;;11.00;;
29330;SDS011;16331;52.528;13.342;2023-08-06T12:38:17;15.80;;;10.10;;
29330;SDS011;16331;52.528;13.342;2023-08-06T12:40:43;15.40;;;10.27;;
29330;SDS011;16331;52.528;13.342;2023-08-06T12:43:10;15.65;;;10.32;;
29330;SDS011;16331;52.528;13.342;2023-08-06T12:45:37;15.73;;;10.82;;
29330;SDS011;16331;52.528;13.342;2023-08-06T12:48:03;18.27;;;12.55;;
29330;SDS011;16331;52.528;13.342;2023-08-06T12:50:36;15.52;;;10.65;;
29330;SDS011;16331;52.528;13.342;2023-08-06T12:53:06;16.70;;;10.32;;
29330;SDS011;16331;52.528;13.342;2023-08-06T12:55:32;17.60;;;10.00;;
29330;SDS011;16331;52.528;13.342;2023-08-06T12:57:58;21.73;;;9.88;;
29330;SDS011;16331;52.528;13.342;2023-08-06T13:00:26;16.17;;;9.73;;
29330;SDS011;16331;52.528;13.342;2023-08-06T13:02:53;19.90;;;11.57;;
29330;SDS011;16331;52.528;13.342;2023-08-06T13:05:19;19.00;;;11.68;;
29330;SDS011;16331;52.528;13.342;2023-08-06T13:07:46;20.17;;;10.65;;
29330;SDS011;16331;52.528;13.342;2023-08-06T13:10:12;15.90;;;11.32;;
29330;SDS011;16331;52.528;13.342;2023-08-06T13:12:38;17.38;;;10.77;;
29330;SDS011;16331;52.528;13.342;2023-08-06T13:15:05;18.73;;;11.27;;
29330;SDS011;16331;52.528;13.342;2023-08-06T13:17:32;17.67;;;11.32;;
29330;SDS011;16331;52.528;13.342;2023-08-06T13:19:58;15.40;;;10.07;;
29330;SDS011;16331;52.528;13.342;2023-08-06T13:22:25;17.25;;;10.95;;
29330;SDS011;16331;52.528;13.342;2023-08-06T13:24:52;19.27;;;10.60;;
29330;SDS011;16331;52.528;13.342;2023-08-06T13:27:18;18.67;;;11.48;;
29330;SDS011;16331;52.528;13.342;2023-08-06T13:29:45;19.92;;;11.23;;
29330;SDS011;16331;52.528;13.342;2023-08-06T13:32:11;16.55;;;10.05;;
29330;SDS011;16331;52.528;13.342;2023-08-06T13:34:37;20.70;;;11.00;;
29330;SDS011;16331;52.528;13.342;2023-08-06T13:37:03;18.73;;;10.30;;
29330;SDS011;16331;52.528;13.342;2023-08-06T13:39:31;14.73;;;10.10;;
29330;SDS011;16331;52.528;13.342;2023-08-06T13:41:59;20.88;;;11.25;;
29330;SDS011;16331;52.528;13.342;2023-08-06T13:44:25;18.58;;;10.45;;
29330;SDS011;16331;52.528;13.342;2023-08-06T13:46:51;18.27;;;11.07;;
29330;SDS011;16331;52.528;13.342;2023-08-06T13:49:18;19.35;;;10.70;;
29330;SDS011;16331;52.528;13.342;2023-08-06T13:51:44;17.73;;;10.90;;
29330;SDS011;16331;52.528;13.342;2023-08-06T13:54:13;17.45;;;10.80;;
29330;SDS011;16331;52.528;13.342;2023-08-06T13:56:42;19.05;;;11.77;;
29330;SDS011;16331;52.528;13.342;2023-08-06T13:59:08;19.55;;;11.63;;
29330;SDS011;16331;52.528;13.342;2023-08-06T14:01:39;16.55;;;10.80;;
29330;SDS011;16331;52.528;13.342;2023-08-06T14:04:05;18.08;;;10.38;;
29330;SDS011;16331;52.528;13.342;2023-08-06T14:06:31;19.83;;;10.95;;
29330;SDS011;16331;52.528;13.342;2023-08-06T14:09:01;20.23;;;11.88;;
29330;SDS011;16331;52.528;13.342;2023-08-06T14:11:27;22.20;;;10.93;;
29330;SDS011;16331;52.528;13.342;2023-08-06T14:13:54;20.90;;;10.60;;
29330;SDS011;16331;52.528;13.342;2023-08-06T14:16:24;24.48;;;11.15;;
29330;SDS011;16331;52.528;13.342;2023-08-06T14:18:50;18.27;;;9.50;;
29330;SDS011;16331;52.528;13.342;2023-08-06T14:21:16;15.68;;;10.00;;
29330;SDS011;16331;52.528;13.342;2023-08-06T14:23:42;21.30;;;10.50;;
29330;SDS011;16331;52.528;13.342;2023-08-06T14:26:11;16.67;;;10.02;;
29330;SDS011;16331;52.528;13.342;2023-08-06T14:28:40;17.38;;;9.45;;
29330;SDS011;16331;52.528;13.342;2023-08-06T14:31:06;18.92;;;10.13;;
29330;SDS011;16331;52.528;13.342;2023-08-06T14:33:32;22.38;;;9.50;;